sensor_id;sensor_type;location;lat;lon;timestamp;temperature;humidity
19017;DHT22;9641;51.494;6.670;2023-06-19T00:01:58;23.60;1.00
19017;DHT22;9641;51.494;6.670;2023-06-19T00:04:25;23.50;1.00
19017;DHT22;9641;51.494;6.670;2023-06-19T00:06:53;23.50;1.00
19017;DHT22;9641;51.494;6.670;2023-06-19T00:09:20;23.40;1.40
19017;DHT22;9641;51.494;6.670;2023-06-19T00:11:48;23.40;9.20
19017;DHT22;9641;51.494;6.670;2023-06-19T00:14:14;23.40;17.90
19017;DHT22;9641;51.494;6.670;2023-06-19T00:16:42;23.40;28.50
19017;DHT22;9641;51.494;6.670;2023-06-19T00:19:09;23.40;32.10
19017;DHT22;9641;51.494;6.670;2023-06-19T00:21:37;23.40;44.50
19017;DHT22;9641;51.494;6.670;2023-06-19T00:24:06;23.30;91.50
19017;DHT22;9641;51.494;6.670;2023-06-19T00:26:33;23.30;99.90
19017;DHT22;9641;51.494;6.670;2023-06-19T00:29:00;23.30;99.90
19017;DHT22;9641;51.494;6.670;2023-06-19T00:31:28;23.10;99.90
19017;DHT22;9641;51.494;6.670;2023-06-19T00:33:55;23.00;99.90
19017;DHT22;9641;51.494;6.670;2023-06-19T00:36:24;22.90;99.90
19017;DHT22;9641;51.494;6.670;2023-06-19T00:38:52;22.80;99.90
19017;DHT22;9641;51.494;6.670;2023-06-19T00:41:20;22.70;1.00
19017;DHT22;9641;51.494;6.670;2023-06-19T00:43:48;22.60;1.00
19017;DHT22;9641;51.494;6.670;2023-06-19T00:46:15;22.50;1.00
19017;DHT22;9641;51.494;6.670;2023-06-19T00:48:42;22.50;1.00
19017;DHT22;9641;51.494;6.670;2023-06-19T00:51:09;22.40;1.00
19017;DHT22;9641;51.494;6.670;2023-06-19T00:53:38;22.40;1.00
19017;DHT22;9641;51.494;6.670;2023-06-19T00:56:05;22.30;1.00
19017;DHT22;9641;51.494;6.670;2023-06-19T00:58:33;22.20;56.10
19017;DHT22;9641;51.494;6.670;2023-06-19T01:01:00;22.20;99.90
19017;DHT22;9641;51.494;6.670;2023-06-19T01:03:27;22.10;98.10
19017;DHT22;9641;51.494;6.670;2023-06-19T01:05:55;22.10;99.90
19017;DHT22;9641;51.494;6.670;2023-06-19T01:08:40;22.10;99.90
19017;DHT22;9641;51.494;6.670;2023-06-19T01:11:09;22.10;99.90
19017;DHT22;9641;51.494;6.670;2023-06-19T01:13:44;22.00;99.90
19017;DHT22;9641;51.494;6.670;2023-06-19T01:16:13;22.00;99.90
19017;DHT22;9641;51.494;6.670;2023-06-19T01:18:42;21.90;99.90
19017;DHT22;9641;51.494;6.670;2023-06-19T01:21:11;21.90;99.90
19017;DHT22;9641;51.494;6.670;2023-06-19T01:23:39;21.90;1.00
19017;DHT22;9641;51.494;6.670;2023-06-19T01:26:07;21.80;1.00
19017;DHT22;9641;51.494;6.670;2023-06-19T01:28:34;21.80;1.00
19017;DHT22;9641;51.494;6.670;2023-06-19T01:31:04;21.70;1.00
19017;DHT22;9641;51.494;6.670;2023-06-19T01:33:32;21.70;1.00
19017;DHT22;9641;51.494;6.670;2023-06-19T01:36:00;21.60;1.00
19017;DHT22;9641;51.494;6.670;2023-06-19T01:38:29;21.50;52.90
19017;DHT22;9641;51.494;6.670;2023-06-19T01:40:58;21.50;99.90
19017;DHT22;9641;51.494;6.670;2023-06-19T01:43:26;21.40;32.00
19017;DHT22;9641;51.494;6.670;2023-06-19T01:45:53;21.40;1.00
19017;DHT22;9641;51.494;6.670;2023-06-19T01:48:21;21.30;99.90
19017;DHT22;9641;51.494;6.670;2023-06-19T01:50:48;21.30;99.90
19017;DHT22;9641;51.494;6.670;2023-06-19T01:53:15;21.20;99.90
19017;DHT22;9641;51.494;6.670;2023-06-19T01:55:45;21.20;1.00
19017;DHT22;9641;51.494;6.670;2023-06-19T01:58:14;21.10;1.00
19017;DHT22;9641;51.494;6.670;2023-06-19T02:00:41;21.10;1.00
19017;DHT22;9641;51.494;6.670;2023-06-19T02:03:09;21.10;1.00
19017;DHT22;9641;51.494;6.670;2023-06-19T02:05:35;21.10;1.00
19017;DHT22;9641;51.494;6.670;2023-06-19T02:08:05;21.00;99.90
19017;DHT22;9641;51.494;6.670;2023-06-19T02:10:35;21.00;34.90
19017;DHT22;9641;51.494;6.670;2023-06-19T02:13:02;21.00;1.00
19017;DHT22;9641;51.494;6.670;2023-06-19T02:15:31;21.10;1.00
19017;DHT22;9641;51.494;6.670;2023-06-19T02:17:57;21.10;1.00
19017;DHT22;9641;51.494;6.670;2023-06-19T02:20:25;21.20;1.00
19017;DHT22;9641;51.494;6.670;2023-06-19T02:22:55;21.20;1.00
19017;DHT22;9641;51.494;6.670;2023-06-19T02:25:22;21.20;1.00
19017;DHT22;9641;51.494;6.670;2023-06-19T02:27:49;21.20;1.00
19017;DHT22;9641;51.494;6.670;2023-06-19T02:30:16;21.20;1.00
19017;DHT22;9641;51.494;6.670;2023-06-19T02:32:44;21.30;1.00
19017;DHT22;9641;51.494;6.670;2023-06-19T02:35:11;21.30;1.00
19017;DHT22;9641;51.494;6.670;2023-06-19T02:37:38;21.40;1.00
19017;DHT22;9641;51.494;6.670;2023-06-19T02:40:08;21.50;1.00
19017;DHT22;9641;51.494;6.670;2023-06-19T02:42:36;21.60;99.90
19017;DHT22;9641;51.494;6.670;2023-06-19T02:45:03;21.70;99.90
19017;DHT22;9641;51.494;6.670;2023-06-19T02:47:30;21.70;99.90
19017;DHT22;9641;51.494;6.670;2023-06-19T02:49:59;21.70;99.90
19017;DHT22;9641;51.494;6.670;2023-06-19T02:52:27;21.80;1.00
19017;DHT22;9641;51.494;6.670;2023-06-19T02:54:53;21.80;1.00
19017;DHT22;9641;51.494;6.670;2023-06-19T02:57:20;21.80;1.00
19017;DHT22;9641;51.494;6.670;2023-06-19T02:59:47;21.90;1.00
19017;DHT22;9641;51.494;6.670;2023-06-19T03:02:15;21.90;1.00
19017;DHT22;9641;51.494;6.670;2023-06-19T03:04:43;21.90;99.90
19017;DHT22;9641;51.494;6.670;2023-06-19T03:07:11;22.00;99.90
19017;DHT22;9641;51.494;6.670;2023-06-19T03:09:39;22.00;99.90
19017;DHT22;9641;51.494;6.670;2023-06-19T03:12:08;21.90;99.90
19017;DHT22;9641;51.494;6.670;2023-06-19T03:14:36;22.00;1.00
19017;DHT22;9641;51.494;6.670;2023-06-19T03:17:04;21.90;99.90
19017;DHT22;9641;51.494;6.670;2023-06-19T03:19:31;21.90;99.90
19017;DHT22;9641;51.494;6.670;2023-06-19T03:21:59;22.00;99.90
19017;DHT22;9641;51.494;6.670;2023-06-19T03:24:28;21.90;99.90
19017;DHT22;9641;51.494;6.670;2023-06-19T03:27:07;21.90;1.00
19017;DHT22;9641;51.494;6.670;2023-06-19T03:29:34;21.80;1.00
19017;DHT22;9641;51.494;6.670;2023-06-19T03:32:06;21.70;1.00
19017;DHT22;9641;51.494;6.670;2023-06-19T03:34:34;21.70;1.00
19017;DHT22;9641;51.494;6.670;2023-06-19T03:37:05;21.60;1.00
19017;DHT22;9641;51.494;6.670;2023-06-19T03:39:35;21.60;1.00
19017;DHT22;9641;51.494;6.670;2023-06-19T03:42:07;21.50;1.00
19017;DHT22;9641;51.494;6.670;2023-06-19T03:44:34;21.50;1.00
19017;DHT22;9641;51.494;6.670;2023-06-19T03:47:02;21.50;35.00
19017;DHT22;9641;51.494;6.670;2023-06-19T03:49:29;21.50;99.90
19017;DHT22;9641;51.494;6.670;2023-06-19T03:51:56;21.40;99.90
19017;DHT22;9641;51.494;6.670;2023-06-19T03:54:23;21.30;99.90
19017;DHT22;9641;51.494;6.670;2023-06-19T03:56:53;21.30;99.90
19017;DHT22;9641;51.494;6.670;2023-06-19T03:59:21;21.20;1.00
19017;DHT22;9641;51.494;6.670;2023-06-19T04:01:48;21.20;1.00
19017;DHT22;9641;51.494;6.670;2023-06-19T04:04:16;21.20;1.00
19017;DHT22;9641;51.494;6.670;2023-06-19T04:06:43;21.20;1.00
19017;DHT22;9641;51.494;6.670;2023-06-19T04:09:10;21.20;1.00
19017;DHT22;9641;51.494;6.670;2023-06-19T04:11:36;21.10;1.00
19017;DHT22;9641;51.494;6.670;2023-06-19T04:14:04;21.10;1.00
19017;DHT22;9641;51.494;6.670;2023-06-19T04:16:31;21.10;1.00
19017;DHT22;9641;51.494;6.670;2023-06-19T04:18:58;21.00;99.90
19017;DHT22;9641;51.494;6.670;2023-06-19T04:21:26;20.90;1.00
19017;DHT22;9641;51.494;6.670;2023-06-19T04:23:52;20.80;1.00
19017;DHT22;9641;51.494;6.670;2023-06-19T04:26:20;20.80;99.90
19017;DHT22;9641;51.494;6.670;2023-06-19T04:28:47;20.80;99.90
19017;DHT22;9641;51.494;6.670;2023-06-19T04:31:16;20.80;1.00
19017;DHT22;9641;51.494;6.670;2023-06-19T04:33:43;20.90;1.00
19017;DHT22;9641;51.494;6.670;2023-06-19T04:36:10;20.90;1.00
19017;DHT22;9641;51.494;6.670;2023-06-19T04:38:37;20.80;1.00
19017;DHT22;9641;51.494;6.670;2023-06-19T04:41:04;20.80;1.00
19017;DHT22;9641;51.494;6.670;2023-06-19T04:43:31;20.80;1.00
19017;DHT22;9641;51.494;6.670;2023-06-19T04:45:59;20.80;1.00
19017;DHT22;9641;51.494;6.670;2023-06-19T04:48:27;20.80;96.70
19017;DHT22;9641;51.494;6.670;2023-06-19T04:50:55;20.80;99.90
19017;DHT22;9641;51.494;6.670;2023-06-19T04:53:22;20.80;99.90
19017;DHT22;9641;51.494;6.670;2023-06-19T04:55:49;20.80;99.90
19017;DHT22;9641;51.494;6.670;2023-06-19T04:58:20;20.80;1.00
19017;DHT22;9641;51.494;6.670;2023-06-19T05:00:47;20.80;1.00
19017;DHT22;9641;51.494;6.670;2023-06-19T05:03:16;20.80;1.00
19017;DHT22;9641;51.494;6.670;2023-06-19T05:05:45;20.80;99.90
19017;DHT22;9641;51.494;6.670;2023-06-19T05:08:12;20.80;29.70
19017;DHT22;9641;51.494;6.670;2023-06-19T05:10:39;20.80;99.90
19017;DHT22;9641;51.494;6.670;2023-06-19T05:13:06;20.90;1.00
19017;DHT22;9641;51.494;6.670;2023-06-19T05:15:33;20.90;99.90
19017;DHT22;9641;51.494;6.670;2023-06-19T05:18:00;21.00;1.00
19017;DHT22;9641;51.494;6.670;2023-06-19T05:20:27;21.00;1.00
19017;DHT22;9641;51.494;6.670;2023-06-19T05:22:55;21.10;99.90
19017;DHT22;9641;51.494;6.670;2023-06-19T05:25:22;21.10;1.00
19017;DHT22;9641;51.494;6.670;2023-06-19T05:27:49;21.20;28.80
19017;DHT22;9641;51.494;6.670;2023-06-19T05:30:16;21.10;1.00
19017;DHT22;9641;51.494;6.670;2023-06-19T05:32:43;21.10;99.90
19017;DHT22;9641;51.494;6.670;2023-06-19T05:35:10;21.10;1.00
19017;DHT22;9641;51.494;6.670;2023-06-19T05:37:36;21.10;1.00
19017;DHT22;9641;51.494;6.670;2023-06-19T05:40:07;21.10;1.00
19017;DHT22;9641;51.494;6.670;2023-06-19T05:42:35;21.10;1.00
19017;DHT22;9641;51.494;6.670;2023-06-19T05:45:02;21.00;1.00
19017;DHT22;9641;51.494;6.670;2023-06-19T05:47:29;21.10;1.00
19017;DHT22;9641;51.494;6.670;2023-06-19T05:49:56;21.00;1.00
19017;DHT22;9641;51.494;6.670;2023-06-19T05:52:23;21.10;1.00
19017;DHT22;9641;51.494;6.670;2023-06-19T05:54:50;21.10;1.00
19017;DHT22;9641;51.494;6.670;2023-06-19T05:57:19;21.10;1.00
19017;DHT22;9641;51.494;6.670;2023-06-19T05:59:46;21.10;1.00
19017;DHT22;9641;51.494;6.670;2023-06-19T06:02:13;21.10;1.00
19017;DHT22;9641;51.494;6.670;2023-06-19T06:04:40;21.00;1.00
19017;DHT22;9641;51.494;6.670;2023-06-19T06:07:08;21.00;19.00
19017;DHT22;9641;51.494;6.670;2023-06-19T06:09:35;20.90;99.90
19017;DHT22;9641;51.494;6.670;2023-06-19T06:12:02;20.80;1.00
19017;DHT22;9641;51.494;6.670;2023-06-19T06:14:31;20.90;1.00
19017;DHT22;9641;51.494;6.670;2023-06-19T06:16:57;21.00;1.00
19017;DHT22;9641;51.494;6.670;2023-06-19T06:19:25;21.10;99.90
19017;DHT22;9641;51.494;6.670;2023-06-19T06:21:51;21.20;99.90
19017;DHT22;9641;51.494;6.670;2023-06-19T06:24:18;21.30;1.00
19017;DHT22;9641;51.494;6.670;2023-06-19T06:26:45;21.50;99.90
19017;DHT22;9641;51.494;6.670;2023-06-19T06:29:12;21.60;1.00
19017;DHT22;9641;51.494;6.670;2023-06-19T06:31:40;21.60;1.00
19017;DHT22;9641;51.494;6.670;2023-06-19T06:34:07;21.60;1.00
19017;DHT22;9641;51.494;6.670;2023-06-19T06:36:34;21.60;1.00
19017;DHT22;9641;51.494;6.670;2023-06-19T06:39:01;21.60;1.00
19017;DHT22;9641;51.494;6.670;2023-06-19T06:41:28;21.60;1.00
19017;DHT22;9641;51.494;6.670;2023-06-19T06:43:54;21.50;99.90
19017;DHT22;9641;51.494;6.670;2023-06-19T06:46:21;21.50;99.90
19017;DHT22;9641;51.494;6.670;2023-06-19T06:48:50;21.60;99.90
19017;DHT22;9641;51.494;6.670;2023-06-19T06:51:17;21.70;99.90
19017;DHT22;9641;51.494;6.670;2023-06-19T06:53:44;21.80;1.00
19017;DHT22;9641;51.494;6.670;2023-06-19T06:56:11;21.90;1.00
19017;DHT22;9641;51.494;6.670;2023-06-19T06:58:38;21.90;1.00
19017;DHT22;9641;51.494;6.670;2023-06-19T07:01:05;21.90;1.00
19017;DHT22;9641;51.494;6.670;2023-06-19T07:03:32;21.90;1.00
19017;DHT22;9641;51.494;6.670;2023-06-19T07:06:00;21.90;1.00
19017;DHT22;9641;51.494;6.670;2023-06-19T07:08:28;21.80;1.00
19017;DHT22;9641;51.494;6.670;2023-06-19T07:10:55;21.60;1.00
19017;DHT22;9641;51.494;6.670;2023-06-19T07:13:22;21.60;1.00
19017;DHT22;9641;51.494;6.670;2023-06-19T07:15:49;21.70;99.90
19017;DHT22;9641;51.494;6.670;2023-06-19T07:18:16;21.70;1.00
19017;DHT22;9641;51.494;6.670;2023-06-19T07:20:43;21.70;1.00
19017;DHT22;9641;51.494;6.670;2023-06-19T07:23:11;21.70;99.90
19017;DHT22;9641;51.494;6.670;2023-06-19T07:25:38;21.80;1.00
19017;DHT22;9641;51.494;6.670;2023-06-19T07:28:05;21.90;99.90
19017;DHT22;9641;51.494;6.670;2023-06-19T07:30:31;21.90;1.00
19017;DHT22;9641;51.494;6.670;2023-06-19T07:32:58;21.90;92.00
19017;DHT22;9641;51.494;6.670;2023-06-19T07:35:25;22.10;1.00
19017;DHT22;9641;51.494;6.670;2023-06-19T07:37:52;22.20;1.00
19017;DHT22;9641;51.494;6.670;2023-06-19T07:40:21;22.20;1.00
19017;DHT22;9641;51.494;6.670;2023-06-19T07:42:48;22.20;1.00
19017;DHT22;9641;51.494;6.670;2023-06-19T07:45:14;22.10;1.00
19017;DHT22;9641;51.494;6.670;2023-06-19T07:47:42;22.10;1.00
19017;DHT22;9641;51.494;6.670;2023-06-19T07:50:09;22.20;99.90
19017;DHT22;9641;51.494;6.670;2023-06-19T07:52:36;22.20;99.90
19017;DHT22;9641;51.494;6.670;2023-06-19T07:55:03;22.20;99.90
19017;DHT22;9641;51.494;6.670;2023-06-19T07:57:32;22.20;99.90
19017;DHT22;9641;51.494;6.670;2023-06-19T07:59:59;22.20;99.90
19017;DHT22;9641;51.494;6.670;2023-06-19T08:02:25;22.30;99.90
19017;DHT22;9641;51.494;6.670;2023-06-19T08:04:53;22.30;1.00
19017;DHT22;9641;51.494;6.670;2023-06-19T08:07:20;22.40;1.00
19017;DHT22;9641;51.494;6.670;2023-06-19T08:09:46;22.40;1.00
19017;DHT22;9641;51.494;6.670;2023-06-19T08:12:14;22.50;1.00
19017;DHT22;9641;51.494;6.670;2023-06-19T08:14:42;22.50;99.90
19017;DHT22;9641;51.494;6.670;2023-06-19T08:17:09;22.70;1.00
19017;DHT22;9641;51.494;6.670;2023-06-19T08:19:36;22.80;1.00
19017;DHT22;9641;51.494;6.670;2023-06-19T08:22:05;22.90;1.00
19017;DHT22;9641;51.494;6.670;2023-06-19T08:24:31;23.10;1.00
19017;DHT22;9641;51.494;6.670;2023-06-19T08:26:58;23.20;1.00
19017;DHT22;9641;51.494;6.670;2023-06-19T08:29:25;23.20;99.90
19017;DHT22;9641;51.494;6.670;2023-06-19T08:31:53;23.20;37.50
19017;DHT22;9641;51.494;6.670;2023-06-19T08:34:20;23.10;99.90
19017;DHT22;9641;51.494;6.670;2023-06-19T08:36:47;23.10;99.90
19017;DHT22;9641;51.494;6.670;2023-06-19T08:39:14;23.30;1.00
19017;DHT22;9641;51.494;6.670;2023-06-19T08:41:41;23.40;1.00
19017;DHT22;9641;51.494;6.670;2023-06-19T08:44:09;23.50;99.90
19017;DHT22;9641;51.494;6.670;2023-06-19T08:46:36;23.30;1.00
19017;DHT22;9641;51.494;6.670;2023-06-19T08:49:05;23.40;1.00
19017;DHT22;9641;51.494;6.670;2023-06-19T08:51:33;23.50;1.00
19017;DHT22;9641;51.494;6.670;2023-06-19T08:54:05;23.40;1.00
19017;DHT22;9641;51.494;6.670;2023-06-19T08:56:32;23.50;1.00
19017;DHT22;9641;51.494;6.670;2023-06-19T08:59:10;23.50;1.00
19017;DHT22;9641;51.494;6.670;2023-06-19T09:01:47;23.60;99.90
19017;DHT22;9641;51.494;6.670;2023-06-19T09:04:19;23.60;99.90
19017;DHT22;9641;51.494;6.670;2023-06-19T09:06:51;23.70;99.90
19017;DHT22;9641;51.494;6.670;2023-06-19T09:09:19;23.90;99.90
19017;DHT22;9641;51.494;6.670;2023-06-19T09:11:57;24.20;99.90
19017;DHT22;9641;51.494;6.670;2023-06-19T09:14:31;24.20;20.50
19017;DHT22;9641;51.494;6.670;2023-06-19T09:16:58;24.30;1.00
19017;DHT22;9641;51.494;6.670;2023-06-19T09:19:27;24.30;1.00
19017;DHT22;9641;51.494;6.670;2023-06-19T09:21:59;24.30;1.00
19017;DHT22;9641;51.494;6.670;2023-06-19T09:24:33;24.20;1.00
19017;DHT22;9641;51.494;6.670;2023-06-19T09:27:06;24.10;1.00
19017;DHT22;9641;51.494;6.670;2023-06-19T09:29:36;24.00;1.00
19017;DHT22;9641;51.494;6.670;2023-06-19T09:32:14;23.70;1.00
19017;DHT22;9641;51.494;6.670;2023-06-19T09:34:42;23.60;1.00
19017;DHT22;9641;51.494;6.670;2023-06-19T09:37:09;23.50;1.00
19017;DHT22;9641;51.494;6.670;2023-06-19T09:39:37;23.40;1.00
19017;DHT22;9641;51.494;6.670;2023-06-19T09:42:06;23.50;1.00
19017;DHT22;9641;51.494;6.670;2023-06-19T09:44:41;23.60;1.00
19017;DHT22;9641;51.494;6.670;2023-06-19T09:47:15;23.80;1.00
19017;DHT22;9641;51.494;6.670;2023-06-19T09:49:49;23.80;1.00
19017;DHT22;9641;51.494;6.670;2023-06-19T09:52:17;23.80;1.00
19017;DHT22;9641;51.494;6.670;2023-06-19T09:54:46;24.00;1.00
19017;DHT22;9641;51.494;6.670;2023-06-19T09:57:12;24.10;1.00
19017;DHT22;9641;51.494;6.670;2023-06-19T09:59:41;24.30;1.00
19017;DHT22;9641;51.494;6.670;2023-06-19T10:02:09;24.50;1.00
19017;DHT22;9641;51.494;6.670;2023-06-19T10:04:44;24.70;1.00
19017;DHT22;9641;51.494;6.670;2023-06-19T10:07:20;24.80;1.00
19017;DHT22;9641;51.494;6.670;2023-06-19T10:09:56;24.70;1.00
19017;DHT22;9641;51.494;6.670;2023-06-19T10:12:34;24.50;1.00
19017;DHT22;9641;51.494;6.670;2023-06-19T10:15:12;24.60;1.00
19017;DHT22;9641;51.494;6.670;2023-06-19T10:17:44;24.90;1.00
19017;DHT22;9641;51.494;6.670;2023-06-19T10:20:22;25.10;1.00
19017;DHT22;9641;51.494;6.670;2023-06-19T10:23:01;25.30;1.00
19017;DHT22;9641;51.494;6.670;2023-06-19T10:25:30;25.50;1.00
19017;DHT22;9641;51.494;6.670;2023-06-19T10:27:58;25.60;99.90
19017;DHT22;9641;51.494;6.670;2023-06-19T10:30:25;25.70;99.90
19017;DHT22;9641;51.494;6.670;2023-06-19T10:32:52;25.80;99.90
19017;DHT22;9641;51.494;6.670;2023-06-19T10:35:20;25.90;99.90
19017;DHT22;9641;51.494;6.670;2023-06-19T10:37:49;25.70;99.90
19017;DHT22;9641;51.494;6.670;2023-06-19T10:40:18;25.40;99.90
19017;DHT22;9641;51.494;6.670;2023-06-19T10:42:45;25.30;99.90
19017;DHT22;9641;51.494;6.670;2023-06-19T10:45:13;25.30;99.90
19017;DHT22;9641;51.494;6.670;2023-06-19T10:47:42;25.70;99.90
19017;DHT22;9641;51.494;6.670;2023-06-19T10:50:11;26.20;99.90
19017;DHT22;9641;51.494;6.670;2023-06-19T10:52:42;26.50;99.90
19017;DHT22;9641;51.494;6.670;2023-06-19T10:55:10;26.50;99.90
19017;DHT22;9641;51.494;6.670;2023-06-19T10:57:39;26.50;99.90
19017;DHT22;9641;51.494;6.670;2023-06-19T11:00:07;26.40;99.90
19017;DHT22;9641;51.494;6.670;2023-06-19T11:02:39;26.40;99.90
19017;DHT22;9641;51.494;6.670;2023-06-19T11:05:09;26.40;99.90
19017;DHT22;9641;51.494;6.670;2023-06-19T11:07:37;26.30;99.90
19017;DHT22;9641;51.494;6.670;2023-06-19T11:10:05;26.40;99.90
19017;DHT22;9641;51.494;6.670;2023-06-19T11:12:32;26.40;99.90
19017;DHT22;9641;51.494;6.670;2023-06-19T11:15:05;26.80;99.90
19017;DHT22;9641;51.494;6.670;2023-06-19T11:17:32;26.90;99.90
19017;DHT22;9641;51.494;6.670;2023-06-19T11:19:59;27.00;99.90
19017;DHT22;9641;51.494;6.670;2023-06-19T11:22:37;27.20;99.90
19017;DHT22;9641;51.494;6.670;2023-06-19T11:25:05;27.40;99.90
19017;DHT22;9641;51.494;6.670;2023-06-19T11:27:32;27.80;99.90
19017;DHT22;9641;51.494;6.670;2023-06-19T11:30:01;28.30;99.90
19017;DHT22;9641;51.494;6.670;2023-06-19T11:32:33;28.40;99.90
19017;DHT22;9641;51.494;6.670;2023-06-19T11:35:05;28.60;99.90
19017;DHT22;9641;51.494;6.670;2023-06-19T11:37:34;28.80;99.90
19017;DHT22;9641;51.494;6.670;2023-06-19T11:40:03;29.00;99.90
19017;DHT22;9641;51.494;6.670;2023-06-19T11:42:47;29.00;99.90
19017;DHT22;9641;51.494;6.670;2023-06-19T11:45:15;28.80;99.90
19017;DHT22;9641;51.494;6.670;2023-06-19T11:47:45;28.40;99.90
19017;DHT22;9641;51.494;6.670;2023-06-19T11:50:13;28.00;99.90
19017;DHT22;9641;51.494;6.670;2023-06-19T11:52:41;27.90;99.90
19017;DHT22;9641;51.494;6.670;2023-06-19T11:55:10;27.90;99.90
19017;DHT22;9641;51.494;6.670;2023-06-19T11:57:38;28.20;99.90
19017;DHT22;9641;51.494;6.670;2023-06-19T12:00:15;28.40;99.90
19017;DHT22;9641;51.494;6.670;2023-06-19T12:02:45;28.70;99.90
19017;DHT22;9641;51.494;6.670;2023-06-19T12:05:13;29.10;99.90
19017;DHT22;9641;51.494;6.670;2023-06-19T12:07:40;29.10;99.90
19017;DHT22;9641;51.494;6.670;2023-06-19T12:10:08;29.10;99.90
19017;DHT22;9641;51.494;6.670;2023-06-19T12:12:37;29.20;99.90
19017;DHT22;9641;51.494;6.670;2023-06-19T12:15:05;29.50;99.90
19017;DHT22;9641;51.494;6.670;2023-06-19T12:17:32;29.60;99.90
19017;DHT22;9641;51.494;6.670;2023-06-19T12:20:01;29.20;99.90
19017;DHT22;9641;51.494;6.670;2023-06-19T12:22:31;28.80;99.90
19017;DHT22;9641;51.494;6.670;2023-06-19T12:24:58;29.20;99.90
19017;DHT22;9641;51.494;6.670;2023-06-19T12:27:25;29.40;99.90
19017;DHT22;9641;51.494;6.670;2023-06-19T12:29:52;29.70;99.90
19017;DHT22;9641;51.494;6.670;2023-06-19T12:32:18;29.90;99.90
19017;DHT22;9641;51.494;6.670;2023-06-19T12:34:46;29.80;94.30
19017;DHT22;9641;51.494;6.670;2023-06-19T12:37:16;30.10;99.90
19017;DHT22;9641;51.494;6.670;2023-06-19T12:39:43;30.60;99.90
19017;DHT22;9641;51.494;6.670;2023-06-19T12:42:10;31.00;90.00
19017;DHT22;9641;51.494;6.670;2023-06-19T12:44:39;31.00;91.20
19017;DHT22;9641;51.494;6.670;2023-06-19T12:47:06;30.70;80.80
19017;DHT22;9641;51.494;6.670;2023-06-19T12:49:33;30.40;66.60
19017;DHT22;9641;51.494;6.670;2023-06-19T12:52:00;30.10;59.30
19017;DHT22;9641;51.494;6.670;2023-06-19T12:54:29;30.10;47.50
19017;DHT22;9641;51.494;6.670;2023-06-19T12:56:56;30.50;41.70
19017;DHT22;9641;51.494;6.670;2023-06-19T12:59:23;31.00;22.20
19017;DHT22;9641;51.494;6.670;2023-06-19T13:01:50;31.50;33.60
19017;DHT22;9641;51.494;6.670;2023-06-19T13:04:17;31.90;22.00
19017;DHT22;9641;51.494;6.670;2023-06-19T13:06:44;32.50;6.30
19017;DHT22;9641;51.494;6.670;2023-06-19T13:09:11;32.80;1.00
19017;DHT22;9641;51.494;6.670;2023-06-19T13:11:39;33.20;5.80
19017;DHT22;9641;51.494;6.670;2023-06-19T13:14:06;33.90;1.00
19017;DHT22;9641;51.494;6.670;2023-06-19T13:16:33;34.40;1.00
19017;DHT22;9641;51.494;6.670;2023-06-19T13:19:00;34.70;1.00
19017;DHT22;9641;51.494;6.670;2023-06-19T13:21:27;34.50;1.00
19017;DHT22;9641;51.494;6.670;2023-06-19T13:23:54;34.10;1.00
19017;DHT22;9641;51.494;6.670;2023-06-19T13:26:21;34.20;1.00
19017;DHT22;9641;51.494;6.670;2023-06-19T13:28:49;34.80;1.00
19017;DHT22;9641;51.494;6.670;2023-06-19T13:31:17;34.70;1.00
19017;DHT22;9641;51.494;6.670;2023-06-19T13:33:44;34.80;1.00
19017;DHT22;9641;51.494;6.670;2023-06-19T13:36:10;35.10;1.00
19017;DHT22;9641;51.494;6.670;2023-06-19T13:38:37;35.60;1.00
19017;DHT22;9641;51.494;6.670;2023-06-19T13:41:04;36.50;1.00
19017;DHT22;9641;51.494;6.670;2023-06-19T13:43:31;36.80;1.00
19017;DHT22;9641;51.494;6.670;2023-06-19T13:46:00;37.40;1.00
19017;DHT22;9641;51.494;6.670;2023-06-19T13:48:29;37.80;1.00
19017;DHT22;9641;51.494;6.670;2023-06-19T13:50:55;37.60;1.00
19017;DHT22;9641;51.494;6.670;2023-06-19T13:53:24;37.60;1.00
19017;DHT22;9641;51.494;6.670;2023-06-19T13:55:54;37.70;1.00
19017;DHT22;9641;51.494;6.670;2023-06-19T13:58:21;38.20;1.00
19017;DHT22;9641;51.494;6.670;2023-06-19T14:00:48;38.70;1.00
19017;DHT22;9641;51.494;6.670;2023-06-19T14:03:16;38.90;1.00
19017;DHT22;9641;51.494;6.670;2023-06-19T14:05:43;39.10;1.00
19017;DHT22;9641;51.494;6.670;2023-06-19T14:08:09;39.60;1.00
19017;DHT22;9641;51.494;6.670;2023-06-19T14:10:36;40.10;1.00
19017;DHT22;9641;51.494;6.670;2023-06-19T14:13:03;40.00;1.00
19017;DHT22;9641;51.494;6.670;2023-06-19T14:15:30;40.20;1.00
19017;DHT22;9641;51.494;6.670;2023-06-19T14:17:57;40.50;1.00
19017;DHT22;9641;51.494;6.670;2023-06-19T14:20:25;40.80;1.00
19017;DHT22;9641;51.494;6.670;2023-06-19T14:22:52;40.70;1.00
19017;DHT22;9641;51.494;6.670;2023-06-19T14:25:19;40.20;1.00
19017;DHT22;9641;51.494;6.670;2023-06-19T14:27:46;40.00;1.00
19017;DHT22;9641;51.494;6.670;2023-06-19T14:30:13;40.50;1.00
19017;DHT22;9641;51.494;6.670;2023-06-19T14:32:40;40.30;1.00
19017;DHT22;9641;51.494;6.670;2023-06-19T14:35:07;40.20;1.00
19017;DHT22;9641;51.494;6.670;2023-06-19T14:37:36;40.40;1.00
19017;DHT22;9641;51.494;6.670;2023-06-19T14:40:03;41.10;1.00
19017;DHT22;9641;51.494;6.670;2023-06-19T14:42:30;40.90;1.00
19017;DHT22;9641;51.494;6.670;2023-06-19T14:44:57;40.70;1.00
19017;DHT22;9641;51.494;6.670;2023-06-19T14:47:24;40.50;1.00
19017;DHT22;9641;51.494;6.670;2023-06-19T14:49:51;40.80;1.00
19017;DHT22;9641;51.494;6.670;2023-06-19T14:52:19;41.20;1.00
19017;DHT22;9641;51.494;6.670;2023-06-19T14:54:47;41.70;1.00
19017;DHT22;9641;51.494;6.670;2023-06-19T14:57:14;41.90;1.00
19017;DHT22;9641;51.494;6.670;2023-06-19T14:59:41;41.00;1.00
19017;DHT22;9641;51.494;6.670;2023-06-19T15:02:08;40.60;1.00
19017;DHT22;9641;51.494;6.670;2023-06-19T15:04:36;41.00;1.00
19017;DHT22;9641;51.494;6.670;2023-06-19T15:07:03;41.10;1.00
19017;DHT22;9641;51.494;6.670;2023-06-19T15:09:30;40.80;1.00
19017;DHT22;9641;51.494;6.670;2023-06-19T15:11:59;40.40;1.00
19017;DHT22;9641;51.494;6.670;2023-06-19T15:14:26;40.40;1.00
19017;DHT22;9641;51.494;6.670;2023-06-19T15:16:54;40.40;1.00
19017;DHT22;9641;51.494;6.670;2023-06-19T15:19:21;40.80;1.00
19017;DHT22;9641;51.494;6.670;2023-06-19T15:21:49;41.60;1.00
19017;DHT22;9641;51.494;6.670;2023-06-19T15:24:16;41.80;1.00
19017;DHT22;9641;51.494;6.670;2023-06-19T15:26:43;41.60;1.00
19017;DHT22;9641;51.494;6.670;2023-06-19T15:29:11;42.10;1.00
19017;DHT22;9641;51.494;6.670;2023-06-19T15:31:38;41.90;1.00
19017;DHT22;9641;51.494;6.670;2023-06-19T15:34:05;41.40;1.00
19017;DHT22;9641;51.494;6.670;2023-06-19T15:36:32;41.30;1.00
19017;DHT22;9641;51.494;6.670;2023-06-19T15:38:58;41.40;1.00
19017;DHT22;9641;51.494;6.670;2023-06-19T15:41:25;42.00;1.00
19017;DHT22;9641;51.494;6.670;2023-06-19T15:43:52;42.20;1.00
19017;DHT22;9641;51.494;6.670;2023-06-19T15:46:20;42.50;1.00
19017;DHT22;9641;51.494;6.670;2023-06-19T15:48:47;42.60;1.00
19017;DHT22;9641;51.494;6.670;2023-06-19T15:51:14;42.60;1.00
19017;DHT22;9641;51.494;6.670;2023-06-19T15:53:41;43.10;1.00
19017;DHT22;9641;51.494;6.670;2023-06-19T15:56:08;43.10;1.00
19017;DHT22;9641;51.494;6.670;2023-06-19T15:58:35;42.90;1.00
19017;DHT22;9641;51.494;6.670;2023-06-19T16:01:03;42.40;1.00